Time,TemperatureF,DewpointF,PressureIn,WindDirection,WindDirectionDegrees,WindSpeedMPH,WindSpeedGustMPH,Humidity,HourlyPrecipIn,Conditions,Clouds,dailyrainin,SoftwareType,DateUTC
2013-02-14 00:00:00,52.5,49.4,29.73,WNW,287,12.0,18.0,89,0.00,,,0.03,Wunderground v.1.15,2013-02-14 05:00:00,
2013-02-14 00:01:00,52.5,49.4,29.73,WNW,296,10.0,12.0,89,0.00,,,0.03,Wunderground v.1.15,2013-02-14 05:01:00,
2013-02-14 00:06:00,52.3,49.2,29.74,WNW,300,7.0,12.0,89,0.00,,,0.03,Wunderground v.1.15,2013-02-14 05:06:00,
2013-02-14 00:11:00,52.2,49.4,29.75,WNW,288,12.0,15.0,90,0.00,,,0.03,Wunderground v.1.15,2013-02-14 05:11:00,
2013-02-14 00:17:00,52.1,49.3,29.75,WNW,290,12.0,15.0,90,0.00,,,0.03,Wunderground v.1.15,2013-02-14 05:17:00,
2013-02-14 00:23:00,52.0,49.2,29.76,WNW,291,6.0,13.0,90,0.00,,,0.03,Wunderground v.1.15,2013-02-14 05:23:00,
2013-02-14 00:28:00,51.9,49.1,29.76,WNW,284,11.0,13.0,90,0.00,,,0.03,Wunderground v.1.15,2013-02-14 05:28:00,
2013-02-14 00:34:00,51.9,49.1,29.77,WNW,288,11.0,14.0,90,0.00,,,0.03,Wunderground v.1.15,2013-02-14 05:34:00,
2013-02-14 00:40:00,51.9,49.1,29.76,WNW,290,11.0,11.0,90,0.00,,,0.03,Wunderground v.1.15,2013-02-14 05:40:00,
2013-02-14 00:45:00,51.9,49.1,29.76,WNW,299,6.0,11.0,90,0.00,,,0.03,Wunderground v.1.15,2013-02-14 05:45:00,
2013-02-14 00:51:00,51.9,49.1,29.76,WNW,290,6.0,9.0,90,0.00,,,0.03,Wunderground v.1.15,2013-02-14 05:51:00,
2013-02-14 00:57:00,51.7,48.9,29.76,WNW,297,12.0,12.0,90,0.00,,,0.03,Wunderground v.1.15,2013-02-14 05:57:00,
2013-02-14 01:02:00,51.6,48.8,29.76,WNW,288,11.0,12.0,90,0.00,,,0.03,Wunderground v.1.15,2013-02-14 06:02:00,
2013-02-14 01:08:00,51.7,48.9,29.76,WNW,294,9.0,13.0,90,0.00,,,0.03,Wunderground v.1.15,2013-02-14 06:08:00,
2013-02-14 01:14:00,51.6,48.8,29.76,WNW,298,8.0,12.0,90,0.00,,,0.03,Wunderground v.1.15,2013-02-14 06:14:00,
2013-02-14 01:19:00,51.6,48.5,29.76,NW,319,14.0,14.0,89,0.00,,,0.03,Wunderground v.1.15,2013-02-14 06:19:00,
2013-02-14 01:25:00,51.6,48.5,29.76,NW,304,7.0,11.0,89,0.00,,,0.03,Wunderground v.1.15,2013-02-14 06:25:00,
2013-02-14 01:30:00,51.5,48.4,29.76,NW,326,10.0,10.0,89,0.00,,,0.03,Wunderground v.1.15,2013-02-14 06:30:00,
2013-02-14 01:36:00,51.5,48.4,29.76,NW,317,12.0,12.0,89,0.00,,,0.03,Wunderground v.1.15,2013-02-14 06:36:00,
2013-02-14 01:42:00,51.4,48.3,29.76,WNW,302,11.0,11.0,89,0.00,,,0.03,Wunderground v.1.15,2013-02-14 06:42:00,
2013-02-14 01:47:00,51.3,48.2,29.76,WNW,288,15.0,15.0,89,0.00,,,0.03,Wunderground v.1.15,2013-02-14 06:47:00,
2013-02-14 01:53:00,51.2,48.1,29.77,NW,306,11.0,13.0,89,0.00,,,0.03,Wunderground v.1.15,2013-02-14 06:53:00,
2013-02-14 01:59:00,51.2,48.1,29.76,WNW,303,9.0,13.0,89,0.00,,,0.03,Wunderground v.1.15,2013-02-14 06:59:00,
2013-02-14 02:04:00,51.1,48.0,29.77,NW,307,12.0,20.0,89,0.00,,,0.03,Wunderground v.1.15,2013-02-14 07:04:00,
2013-02-14 02:09:00,51.0,47.6,29.77,NW,319,11.0,20.0,88,0.00,,,0.03,Wunderground v.1.15,2013-02-14 07:09:00,
2013-02-14 02:14:00,51.0,47.6,29.77,NW,324,14.0,18.0,88,0.00,,,0.03,Wunderground v.1.15,2013-02-14 07:14:00,
2013-02-14 02:19:00,50.8,47.4,29.78,NW,323,19.0,19.0,88,0.00,,,0.03,Wunderground v.1.15,2013-02-14 07:19:00,
2013-02-14 02:24:00,50.7,47.3,29.78,NNW,327,14.0,20.0,88,0.00,,,0.03,Wunderground v.1.15,2013-02-14 07:24:00,
2013-02-14 02:29:00,50.6,46.9,29.79,NW,319,17.0,20.0,87,0.00,,,0.03,Wunderground v.1.15,2013-02-14 07:29:00,
2013-02-14 02:34:00,50.6,46.9,29.79,NW,305,14.0,19.0,87,0.00,,,0.03,Wunderground v.1.15,2013-02-14 07:34:00,
2013-02-14 02:39:00,50.4,46.7,29.79,NW,314,16.0,20.0,87,0.00,,,0.03,Wunderground v.1.15,2013-02-14 07:39:00,
2013-02-14 02:44:00,50.3,46.6,29.80,NW,321,15.0,22.0,87,0.00,,,0.03,Wunderground v.1.15,2013-02-14 07:44:00,
2013-02-14 02:49:00,50.2,46.5,29.80,NW,320,19.0,22.0,87,0.00,,,0.03,Wunderground v.1.15,2013-02-14 07:49:00,
2013-02-14 02:54:00,50.0,46.0,29.80,NW,323,13.0,21.0,86,0.00,,,0.03,Wunderground v.1.15,2013-02-14 07:54:00,
2013-02-14 02:59:00,50.0,46.9,29.80,NW,315,12.0,22.0,89,0.00,,,0.03,Wunderground v.1.15,2013-02-14 07:59:00,
2013-02-14 03:04:00,49.9,45.6,29.81,NNW,329,13.0,22.0,85,0.00,,,0.03,Wunderground v.1.15,2013-02-14 08:04:00,
2013-02-14 03:09:00,49.9,45.6,29.81,NW,322,17.0,22.0,85,0.00,,,0.03,Wunderground v.1.15,2013-02-14 08:09:00,
2013-02-14 03:14:00,49.7,45.4,29.81,NW,325,14.0,20.0,85,0.00,,,0.03,Wunderground v.1.15,2013-02-14 08:14:00,
2013-02-14 03:19:00,49.6,45.3,29.81,NNW,327,12.0,20.0,85,0.00,,,0.03,Wunderground v.1.15,2013-02-14 08:19:00,
2013-02-14 03:24:00,49.5,45.5,29.81,NNW,328,12.0,18.0,86,0.00,,,0.03,Wunderground v.1.15,2013-02-14 08:24:00,
2013-02-14 03:29:00,49.5,45.5,29.82,NW,313,15.0,18.0,86,0.00,,,0.03,Wunderground v.1.15,2013-02-14 08:29:00,
2013-02-14 03:34:00,49.4,45.4,29.82,NNW,333,18.0,18.0,86,0.00,,,0.03,Wunderground v.1.15,2013-02-14 08:34:00,
2013-02-14 03:39:00,49.2,45.2,29.82,NNW,333,20.0,20.0,86,0.00,,,0.03,Wunderground v.1.15,2013-02-14 08:39:00,
2013-02-14 03:44:00,49.1,45.1,29.83,NNW,327,14.0,19.0,86,0.00,,,0.04,Wunderground v.1.15,2013-02-14 08:44:00,
2013-02-14 03:49:00,49.0,45.0,29.83,NW,320,15.0,19.0,86,0.00,,,0.04,Wunderground v.1.15,2013-02-14 08:49:00,
2013-02-14 03:54:00,48.9,44.6,29.82,NNW,337,16.0,20.0,85,0.00,,,0.04,Wunderground v.1.15,2013-02-14 08:54:00,
2013-02-14 03:59:00,48.6,44.0,29.83,NNW,335,19.0,23.0,84,0.00,,,0.04,Wunderground v.1.15,2013-02-14 08:59:00,
2013-02-14 04:04:00,48.4,43.2,29.84,NNW,347,21.0,25.0,82,0.00,,,0.04,Wunderground v.1.15,2013-02-14 09:04:00,
2013-02-14 04:09:00,48.1,42.9,29.85,NW,324,16.0,25.0,82,0.00,,,0.04,Wunderground v.1.15,2013-02-14 09:09:00,
2013-02-14 04:14:00,48.0,43.4,29.85,NNW,331,21.0,23.0,84,0.00,,,0.04,Wunderground v.1.15,2013-02-14 09:14:00,
2013-02-14 04:19:00,47.8,43.2,29.85,NNW,338,18.0,23.0,84,0.00,,,0.04,Wunderground v.1.15,2013-02-14 09:19:00,
2013-02-14 04:24:00,47.7,42.8,29.85,NNW,329,16.0,19.0,83,0.00,,,0.04,Wunderground v.1.15,2013-02-14 09:24:00,
2013-02-14 04:29:00,47.3,42.1,29.85,North,349,18.0,21.0,82,0.00,,,0.04,Wunderground v.1.15,2013-02-14 09:29:00,
2013-02-14 04:34:00,47.3,42.4,29.86,North,360,12.0,20.0,83,0.00,,,0.04,Wunderground v.1.15,2013-02-14 09:34:00,
2013-02-14 04:39:00,47.2,42.3,29.87,North,355,16.0,20.0,83,0.00,,,0.04,Wunderground v.1.15,2013-02-14 09:39:00,
2013-02-14 04:44:00,47.0,42.4,29.87,NNW,344,16.0,19.0,84,0.00,,,0.04,Wunderground v.1.15,2013-02-14 09:44:00,
2013-02-14 04:49:00,46.7,41.8,29.87,NNW,344,14.0,19.0,83,0.00,,,0.04,Wunderground v.1.15,2013-02-14 09:49:00,
2013-02-14 04:54:00,46.5,41.9,29.88,North,350,13.0,19.0,84,0.00,,,0.04,Wunderground v.1.15,2013-02-14 09:54:00,
2013-02-14 04:59:00,46.3,41.7,29.88,NNW,347,16.0,19.0,84,0.00,,,0.04,Wunderground v.1.15,2013-02-14 09:59:00,
2013-02-14 05:04:00,46.3,41.7,29.88,North,355,15.0,19.0,84,0.00,,,0.04,Wunderground v.1.15,2013-02-14 10:04:00,
2013-02-14 05:09:00,46.2,41.6,29.89,NNW,345,12.0,19.0,84,0.00,,,0.04,Wunderground v.1.15,2013-02-14 10:09:00,
2013-02-14 05:14:00,46.2,41.6,29.88,North,350,16.0,19.0,84,0.00,,,0.04,Wunderground v.1.15,2013-02-14 10:14:00,
2013-02-14 05:19:00,46.1,41.5,29.88,North,350,16.0,20.0,84,0.00,,,0.04,Wunderground v.1.15,2013-02-14 10:19:00,
2013-02-14 05:24:00,46.0,41.4,29.89,North,355,13.0,19.0,84,0.00,,,0.04,Wunderground v.1.15,2013-02-14 10:24:00,
2013-02-14 05:29:00,46.0,42.0,29.90,North,360,15.0,19.0,86,0.00,,,0.04,Wunderground v.1.15,2013-02-14 10:29:00,
2013-02-14 05:34:00,45.7,41.4,29.90,North,355,16.0,19.0,85,0.00,,,0.04,Wunderground v.1.15,2013-02-14 10:34:00,
2013-02-14 05:39:00,45.6,41.4,29.91,North,355,19.0,21.0,85,0.00,,,0.04,Wunderground v.1.15,2013-02-14 10:39:00,
2013-02-14 05:45:00,45.6,41.4,29.91,NNW,344,17.0,18.0,85,0.00,,,0.04,Wunderground v.1.15,2013-02-14 10:45:00,
2013-02-14 05:50:00,45.6,41.7,29.91,North,355,18.0,18.0,86,0.00,,,0.04,Wunderground v.1.15,2013-02-14 10:50:00,
2013-02-14 05:55:00,45.5,41.6,29.91,North,355,20.0,20.0,86,0.00,,,0.04,Wunderground v.1.15,2013-02-14 10:55:00,
2013-02-14 06:00:00,45.3,41.1,29.91,North,355,16.0,17.0,85,0.00,,,0.04,Wunderground v.1.15,2013-02-14 11:00:00,
2013-02-14 06:05:00,45.3,41.4,29.91,North,350,15.0,20.0,86,0.00,,,0.04,Wunderground v.1.15,2013-02-14 11:05:00,
2013-02-14 06:10:00,45.2,41.3,29.91,North,350,17.0,17.0,86,0.00,,,0.04,Wunderground v.1.15,2013-02-14 11:10:00,
2013-02-14 06:15:00,45.0,40.8,29.91,North,355,17.0,20.0,85,0.00,,,0.04,Wunderground v.1.15,2013-02-14 11:15:00,
2013-02-14 06:20:00,45.1,40.9,29.91,North,5,12.0,16.0,85,0.00,,,0.04,Wunderground v.1.15,2013-02-14 11:20:00,
2013-02-14 06:25:00,45.0,40.8,29.92,North,360,14.0,19.0,85,0.00,,,0.04,Wunderground v.1.15,2013-02-14 11:25:00,
2013-02-14 06:30:00,44.9,40.7,29.92,North,355,15.0,15.0,85,0.00,,,0.04,Wunderground v.1.15,2013-02-14 11:30:00,
2013-02-14 06:35:00,44.8,40.6,29.92,North,351,16.0,18.0,85,0.00,,,0.04,Wunderground v.1.15,2013-02-14 11:35:00,
2013-02-14 06:40:00,44.9,41.0,29.92,North,9,14.0,14.0,86,0.00,,,0.04,Wunderground v.1.15,2013-02-14 11:40:00,
2013-02-14 06:45:00,44.9,41.0,29.92,North,5,14.0,17.0,86,0.00,,,0.04,Wunderground v.1.15,2013-02-14 11:45:00,
2013-02-14 06:50:00,44.6,40.7,29.92,North,360,14.0,16.0,86,0.00,,,0.04,Wunderground v.1.15,2013-02-14 11:50:00,
2013-02-14 06:55:00,44.6,40.7,29.92,North,360,15.0,17.0,86,0.00,,,0.04,Wunderground v.1.15,2013-02-14 11:55:00,
2013-02-14 07:00:00,44.5,40.6,29.92,North,5,13.0,16.0,86,0.00,,,0.04,Wunderground v.1.15,2013-02-14 12:00:00,
2013-02-14 07:05:00,44.5,40.6,29.92,North,9,14.0,19.0,86,0.00,,,0.04,Wunderground v.1.15,2013-02-14 12:05:00,
2013-02-14 07:10:00,44.6,40.7,29.92,North,5,15.0,17.0,86,0.00,,,0.04,Wunderground v.1.15,2013-02-14 12:10:00,
2013-02-14 07:15:00,44.4,40.5,29.92,North,360,14.0,19.0,86,0.00,,,0.04,Wunderground v.1.15,2013-02-14 12:15:00,
2013-02-14 07:20:00,44.4,40.5,29.93,North,5,15.0,15.0,86,0.00,,,0.04,Wunderground v.1.15,2013-02-14 12:20:00,
2013-02-14 07:25:00,44.4,40.5,29.94,North,9,16.0,18.0,86,0.00,,,0.04,Wunderground v.1.15,2013-02-14 12:25:00,
2013-02-14 07:30:00,44.4,40.5,29.94,North,360,14.0,17.0,86,0.00,,,0.04,Wunderground v.1.15,2013-02-14 12:30:00,
2013-02-14 07:35:00,44.4,40.8,29.93,NNE,12,13.0,19.0,87,0.00,,,0.04,Wunderground v.1.15,2013-02-14 12:35:00,
2013-02-14 07:40:00,44.2,40.3,29.94,North,360,16.0,16.0,86,0.00,,,0.04,Wunderground v.1.15,2013-02-14 12:40:00,
2013-02-14 07:45:00,44.3,40.7,29.94,North,5,15.0,18.0,87,0.00,,,0.04,Wunderground v.1.15,2013-02-14 12:45:00,
2013-02-14 07:50:00,44.3,40.7,29.94,NNE,12,11.0,15.0,87,0.00,,,0.04,Wunderground v.1.15,2013-02-14 12:50:00,
2013-02-14 07:55:00,44.5,40.9,29.94,NNE,13,13.0,19.0,87,0.00,,,0.04,Wunderground v.1.15,2013-02-14 12:55:00,
2013-02-14 08:00:00,44.6,41.0,29.93,North,5,13.0,17.0,87,0.00,,,0.04,Wunderground v.1.15,2013-02-14 13:00:00,
2013-02-14 08:05:00,44.6,40.7,29.93,NNE,12,14.0,18.0,86,0.00,,,0.04,Wunderground v.1.15,2013-02-14 13:05:00,
2013-02-14 08:10:00,44.8,41.2,29.94,North,360,15.0,15.0,87,0.00,,,0.04,Wunderground v.1.15,2013-02-14 13:10:00,
2013-02-14 08:15:00,44.9,41.3,29.95,North,5,14.0,18.0,87,0.00,,,0.04,Wunderground v.1.15,2013-02-14 13:15:00,
2013-02-14 08:20:00,44.9,41.0,29.95,NNE,14,13.0,18.0,86,0.00,,,0.04,Wunderground v.1.15,2013-02-14 13:20:00,
2013-02-14 08:25:00,45.0,41.1,29.95,NNE,30,17.0,21.0,86,0.00,,,0.04,Wunderground v.1.15,2013-02-14 13:25:00,
2013-02-14 08:30:00,44.8,40.6,29.96,NNE,24,13.0,18.0,85,0.00,,,0.04,Wunderground v.1.15,2013-02-14 13:30:00,
2013-02-14 08:36:00,44.7,40.2,29.96,NNE,22,16.0,19.0,84,0.00,,,0.04,Wunderground v.1.15,2013-02-14 13:36:00,
2013-02-14 08:41:00,44.8,40.6,29.98,North,9,11.0,14.0,85,0.00,,,0.04,Wunderground v.1.15,2013-02-14 13:41:00,
2013-02-14 08:46:00,45.0,40.8,29.98,NNE,15,10.0,18.0,85,0.00,,,0.04,Wunderground v.1.15,2013-02-14 13:46:00,
2013-02-14 08:51:00,44.9,41.0,29.98,NNE,18,16.0,18.0,86,0.00,,,0.04,Wunderground v.1.15,2013-02-14 13:51:00,
2013-02-14 08:56:00,44.7,40.5,29.98,NNE,23,14.0,20.0,85,0.00,,,0.04,Wunderground v.1.15,2013-02-14 13:56:00,
2013-02-14 09:01:00,44.5,40.6,29.98,NNE,21,11.0,16.0,86,0.00,,,0.04,Wunderground v.1.15,2013-02-14 14:01:00,
2013-02-14 09:06:00,44.5,40.6,29.99,North,5,13.0,16.0,86,0.00,,,0.04,Wunderground v.1.15,2013-02-14 14:06:00,
2013-02-14 09:11:00,44.4,40.5,29.98,NNE,15,14.0,15.0,86,0.00,,,0.04,Wunderground v.1.15,2013-02-14 14:11:00,
2013-02-14 09:16:00,44.4,40.2,29.98,North,5,11.0,17.0,85,0.00,,,0.00,Wunderground v.1.15,2013-02-14 14:16:00,
2013-02-14 09:21:00,44.5,40.6,29.99,NNE,14,12.0,13.0,86,0.00,,,0.00,Wunderground v.1.15,2013-02-14 14:21:00,
2013-02-14 09:26:00,44.3,40.4,30.00,NNE,18,8.0,15.0,86,0.00,,,0.00,Wunderground v.1.15,2013-02-14 14:26:00,
2013-02-14 09:31:00,44.4,40.5,29.99,North,11,14.0,16.0,86,0.00,,,0.00,Wunderground v.1.15,2013-02-14 14:31:00,
2013-02-14 09:36:00,44.3,40.4,29.99,NNE,15,11.0,16.0,86,0.00,,,0.00,Wunderground v.1.15,2013-02-14 14:36:00,
2013-02-14 09:41:00,44.4,40.5,29.99,NNE,22,10.0,12.0,86,0.00,,,0.00,Wunderground v.1.15,2013-02-14 14:41:00,
2013-02-14 09:46:00,44.3,40.4,29.99,North,5,11.0,16.0,86,0.00,,,0.00,Wunderground v.1.15,2013-02-14 14:46:00,
2013-02-14 09:51:00,44.3,40.4,29.99,NNE,19,10.0,12.0,86,0.00,,,0.00,Wunderground v.1.15,2013-02-14 14:51:00,
2013-02-14 09:56:00,44.4,40.5,29.99,North,11,9.0,14.0,86,0.00,,,0.00,Wunderground v.1.15,2013-02-14 14:56:00,
2013-02-14 10:01:00,44.3,40.4,29.99,North,9,12.0,14.0,86,0.00,,,0.00,Wunderground v.1.15,2013-02-14 15:01:00,
2013-02-14 10:06:00,44.2,40.3,29.98,NNE,30,10.0,14.0,86,0.00,,,0.00,Wunderground v.1.15,2013-02-14 15:06:00,
2013-02-14 10:11:00,44.2,40.3,29.98,NNE,32,10.0,13.0,86,0.00,,,0.00,Wunderground v.1.15,2013-02-14 15:11:00,
2013-02-14 10:16:00,44.2,40.3,29.99,North,5,12.0,17.0,86,0.00,,,0.00,Wunderground v.1.15,2013-02-14 15:16:00,
2013-02-14 10:21:00,44.1,40.2,29.99,NNE,28,9.0,15.0,86,0.00,,,0.00,Wunderground v.1.15,2013-02-14 15:21:00,
2013-02-14 10:27:00,44.3,40.4,29.99,NNE,31,10.0,15.0,86,0.00,,,0.00,Wunderground v.1.15,2013-02-14 15:27:00,
2013-02-14 10:32:00,44.7,40.5,30.00,NNE,32,9.0,12.0,85,0.00,,,0.00,Wunderground v.1.15,2013-02-14 15:32:00,
2013-02-14 10:37:00,44.7,40.2,30.00,NE,40,9.0,15.0,84,0.00,,,0.00,Wunderground v.1.15,2013-02-14 15:37:00,
2013-02-14 10:42:00,45.1,40.6,30.00,NNE,27,10.0,13.0,84,0.00,,,0.00,Wunderground v.1.15,2013-02-14 15:42:00,
2013-02-14 10:47:00,45.1,40.6,29.99,North,9,14.0,15.0,84,0.00,,,0.00,Wunderground v.1.15,2013-02-14 15:47:00,
2013-02-14 10:52:00,44.9,40.4,30.00,NNE,17,9.0,16.0,84,0.00,,,0.00,Wunderground v.1.15,2013-02-14 15:52:00,
2013-02-14 10:57:00,45.0,40.5,30.00,NNE,17,13.0,16.0,84,0.00,,,0.00,Wunderground v.1.15,2013-02-14 15:57:00,
2013-02-14 11:02:00,44.9,40.7,30.01,NNE,15,12.0,15.0,85,0.00,,,0.00,Wunderground v.1.15,2013-02-14 16:02:00,
2013-02-14 11:07:00,44.8,40.3,30.01,North,360,15.0,15.0,84,0.00,,,0.00,Wunderground v.1.15,2013-02-14 16:07:00,
2013-02-14 11:12:00,44.9,40.4,30.01,NNE,26,8.0,13.0,84,0.00,,,0.00,Wunderground v.1.15,2013-02-14 16:12:00,
2013-02-14 11:17:00,44.8,40.0,30.00,NNE,18,9.0,16.0,83,0.00,,,0.00,Wunderground v.1.15,2013-02-14 16:17:00,
2013-02-14 11:22:00,44.7,39.9,30.00,NNE,16,9.0,12.0,83,0.00,,,0.00,Wunderground v.1.15,2013-02-14 16:22:00,
2013-02-14 11:27:00,44.9,40.0,30.00,NNE,22,10.0,14.0,83,0.00,,,0.00,Wunderground v.1.15,2013-02-14 16:27:00,
2013-02-14 11:32:00,44.8,40.0,30.00,NE,42,11.0,11.0,83,0.00,,,0.00,Wunderground v.1.15,2013-02-14 16:32:00,
2013-02-14 11:37:00,44.7,39.2,30.00,NE,45,5.0,15.0,81,0.00,,,0.00,Wunderground v.1.15,2013-02-14 16:37:00,
2013-02-14 11:42:00,44.7,39.5,30.00,NE,38,4.0,10.0,82,0.00,,,0.00,Wunderground v.1.15,2013-02-14 16:42:00,
2013-02-14 11:47:00,44.9,39.7,30.01,NNE,15,5.0,12.0,82,0.00,,,0.00,Wunderground v.1.15,2013-02-14 16:47:00,
2013-02-14 11:52:00,44.8,39.6,30.01,NE,35,9.0,13.0,82,0.00,,,0.00,Wunderground v.1.15,2013-02-14 16:52:00,
2013-02-14 11:57:00,45.0,39.8,30.00,NNE,31,8.0,13.0,82,0.00,,,0.00,Wunderground v.1.15,2013-02-14 16:57:00,
2013-02-14 12:02:00,44.8,39.6,30.00,NNE,13,9.0,14.0,82,0.00,,,0.00,Wunderground v.1.15,2013-02-14 17:02:00,
2013-02-14 12:07:00,44.8,39.6,30.01,NNE,19,10.0,14.0,82,0.00,,,0.00,Wunderground v.1.15,2013-02-14 17:07:00,
2013-02-14 12:12:00,44.9,40.0,30.01,NNE,13,6.0,11.0,83,0.00,,,0.00,Wunderground v.1.15,2013-02-14 17:12:00,
2013-02-14 12:18:00,44.9,39.7,30.01,North,360,11.0,11.0,82,0.00,,,0.00,Wunderground v.1.15,2013-02-14 17:18:00,
2013-02-14 12:23:00,44.9,40.0,30.01,NNE,17,11.0,11.0,83,0.00,,,0.00,Wunderground v.1.15,2013-02-14 17:23:00,
2013-02-14 12:28:00,44.9,39.7,30.01,NNE,24,8.0,11.0,82,0.00,,,0.00,Wunderground v.1.15,2013-02-14 17:28:00,
2013-02-14 12:33:00,44.9,40.0,30.01,NNE,15,8.0,10.0,83,0.00,,,0.00,Wunderground v.1.15,2013-02-14 17:33:00,
2013-02-14 12:38:00,44.8,40.0,30.00,NNE,12,7.0,10.0,83,0.00,,,0.00,Wunderground v.1.15,2013-02-14 17:38:00,
2013-02-14 12:43:00,44.7,39.5,30.00,NNE,19,3.0,10.0,82,0.00,,,0.00,Wunderground v.1.15,2013-02-14 17:43:00,
2013-02-14 12:48:00,44.7,39.5,30.00,NNE,20,6.0,10.0,82,0.00,,,0.00,Wunderground v.1.15,2013-02-14 17:48:00,
2013-02-14 12:53:00,44.8,39.6,30.00,North,11,6.0,10.0,82,0.00,,,0.00,Wunderground v.1.15,2013-02-14 17:53:00,
2013-02-14 12:58:00,45.0,39.8,30.00,North,5,6.0,10.0,82,0.00,,,0.00,Wunderground v.1.15,2013-02-14 17:58:00,
2013-02-14 13:03:00,45.0,39.8,30.00,North,5,5.0,9.0,82,0.00,,,0.00,Wunderground v.1.15,2013-02-14 18:03:00,
2013-02-14 13:08:00,45.0,39.5,30.01,NNE,17,6.0,10.0,81,0.00,,,0.00,Wunderground v.1.15,2013-02-14 18:08:00,
2013-02-14 13:13:00,45.0,39.5,30.01,NNE,17,9.0,9.0,81,0.00,,,0.00,Wunderground v.1.15,2013-02-14 18:13:00,
2013-02-14 13:18:00,45.0,39.5,30.00,North,11,6.0,12.0,81,0.00,,,0.00,Wunderground v.1.15,2013-02-14 18:18:00,
2013-02-14 13:23:00,45.1,39.6,29.99,North,5,7.0,10.0,81,0.00,,,0.00,Wunderground v.1.15,2013-02-14 18:23:00,
2013-02-14 13:28:00,45.2,40.0,29.99,NNE,20,10.0,10.0,82,0.00,,,0.00,Wunderground v.1.15,2013-02-14 18:28:00,
2013-02-14 13:33:00,45.1,39.6,29.99,NNE,23,6.0,9.0,81,0.00,,,0.00,Wunderground v.1.15,2013-02-14 18:33:00,
2013-02-14 13:38:00,45.2,39.7,29.99,NNE,22,6.0,9.0,81,0.00,,,0.00,Wunderground v.1.15,2013-02-14 18:38:00,
2013-02-14 13:43:00,45.2,39.7,29.99,NNE,22,6.0,7.0,81,0.00,,,0.00,Wunderground v.1.15,2013-02-14 18:43:00,
2013-02-14 13:48:00,45.3,39.8,29.99,NNE,15,5.0,9.0,81,0.00,,,0.00,Wunderground v.1.15,2013-02-14 18:48:00,
2013-02-14 13:53:00,45.2,39.7,29.99,North,5,7.0,11.0,81,0.00,,,0.00,Wunderground v.1.15,2013-02-14 18:53:00,
2013-02-14 13:58:00,45.1,39.6,29.99,North,5,7.0,11.0,81,0.00,,,0.00,Wunderground v.1.15,2013-02-14 18:58:00,
2013-02-14 14:03:00,45.2,40.0,30.00,NNE,17,5.0,15.0,82,0.00,,,0.00,Wunderground v.1.15,2013-02-14 19:03:00,
2013-02-14 14:08:00,45.3,39.8,30.00,NNE,19,4.0,15.0,81,0.00,,,0.00,Wunderground v.1.15,2013-02-14 19:08:00,
2013-02-14 14:13:00,45.3,39.8,30.00,NNE,19,3.0,6.0,81,0.00,,,0.00,Wunderground v.1.15,2013-02-14 19:13:00,
2013-02-14 14:18:00,45.5,40.0,30.00,NNE,19,4.0,6.0,81,0.00,,,0.00,Wunderground v.1.15,2013-02-14 19:18:00,
2013-02-14 14:23:00,45.5,40.0,30.00,NNE,21,3.0,5.0,81,0.00,,,0.00,Wunderground v.1.15,2013-02-14 19:23:00,
2013-02-14 14:28:00,45.5,40.0,30.00,NNE,22,4.0,7.0,81,0.00,,,0.00,Wunderground v.1.15,2013-02-14 19:28:00,
2013-02-14 14:33:00,45.4,39.9,29.99,NNE,23,2.0,7.0,81,0.00,,,0.00,Wunderground v.1.15,2013-02-14 19:33:00,
2013-02-14 14:38:00,45.5,40.0,29.99,NNE,23,1.0,7.0,81,0.00,,,0.00,Wunderground v.1.15,2013-02-14 19:38:00,
2013-02-14 14:43:00,45.6,40.1,29.99,NNE,31,3.0,7.0,81,0.00,,,0.00,Wunderground v.1.15,2013-02-14 19:43:00,
2013-02-14 14:48:00,45.6,40.1,29.99,NNE,32,6.0,7.0,81,0.00,,,0.00,Wunderground v.1.15,2013-02-14 19:48:00,
2013-02-14 14:53:00,45.5,40.0,29.98,NNE,32,4.0,7.0,81,0.00,,,0.00,Wunderground v.1.15,2013-02-14 19:53:00,
2013-02-14 14:58:00,45.6,40.4,29.98,NE,35,5.0,7.0,82,0.00,,,0.00,Wunderground v.1.15,2013-02-14 19:58:00,
2013-02-14 15:03:00,45.8,40.3,29.99,NE,35,4.0,5.0,81,0.00,,,0.00,Wunderground v.1.15,2013-02-14 20:03:00,
2013-02-14 15:08:00,45.9,40.4,29.99,NE,35,4.0,5.0,81,0.00,,,0.00,Wunderground v.1.15,2013-02-14 20:08:00,
2013-02-14 15:13:00,45.8,40.0,29.99,NE,35,2.0,7.0,80,0.00,,,0.00,Wunderground v.1.15,2013-02-14 20:13:00,
2013-02-14 15:18:00,45.8,40.3,29.99,NE,35,2.0,7.0,81,0.00,,,0.00,Wunderground v.1.15,2013-02-14 20:18:00,
2013-02-14 15:23:00,45.8,40.0,29.99,NE,37,4.0,7.0,80,0.00,,,0.00,Wunderground v.1.15,2013-02-14 20:23:00,
2013-02-14 15:28:00,45.8,40.0,29.99,NE,37,3.0,7.0,80,0.00,,,0.00,Wunderground v.1.15,2013-02-14 20:28:00,
2013-02-14 15:33:00,45.9,40.1,29.99,NE,37,4.0,6.0,80,0.00,,,0.00,Wunderground v.1.15,2013-02-14 20:33:00,
2013-02-14 15:39:00,46.0,40.2,29.99,NE,38,2.0,6.0,80,0.00,,,0.00,Wunderground v.1.15,2013-02-14 20:39:00,
2013-02-14 15:44:00,46.3,40.5,29.99,NE,43,3.0,5.0,80,0.00,,,0.00,Wunderground v.1.15,2013-02-14 20:44:00,
2013-02-14 15:49:00,46.3,40.1,30.00,NE,44,5.0,7.0,79,0.00,,,0.00,Wunderground v.1.15,2013-02-14 20:49:00,
2013-02-14 15:54:00,46.2,40.0,30.00,NE,44,4.0,6.0,79,0.00,,,0.00,Wunderground v.1.15,2013-02-14 20:54:00,
2013-02-14 15:59:00,46.3,40.5,30.00,NE,44,5.0,6.0,80,0.00,,,0.00,Wunderground v.1.15,2013-02-14 20:59:00,
2013-02-14 16:04:00,46.3,40.1,30.00,NE,44,0.0,3.0,79,0.00,,,0.00,Wunderground v.1.15,2013-02-14 21:04:00,
2013-02-14 16:09:00,46.3,40.1,30.00,NE,44,5.0,6.0,79,0.00,,,0.00,Wunderground v.1.15,2013-02-14 21:09:00,
2013-02-14 16:14:00,46.3,40.5,30.00,NE,45,3.0,6.0,80,0.00,,,0.00,Wunderground v.1.15,2013-02-14 21:14:00,
2013-02-14 16:19:00,46.3,40.5,30.00,NE,45,4.0,6.0,80,0.00,,,0.00,Wunderground v.1.15,2013-02-14 21:19:00,
2013-02-14 16:24:00,46.3,40.5,30.00,NE,45,3.0,5.0,80,0.00,,,0.00,Wunderground v.1.15,2013-02-14 21:24:00,
2013-02-14 16:29:00,46.2,40.4,30.00,NE,45,1.0,5.0,80,0.00,,,0.00,Wunderground v.1.15,2013-02-14 21:29:00,
2013-02-14 16:34:00,46.2,40.4,30.00,NE,45,2.0,5.0,80,0.00,,,0.00,Wunderground v.1.15,2013-02-14 21:34:00,
2013-02-14 16:39:00,46.2,40.4,30.00,NE,45,0.0,5.0,80,0.00,,,0.00,Wunderground v.1.15,2013-02-14 21:39:00,
2013-02-14 16:44:00,46.3,40.5,30.00,NE,45,1.0,4.0,80,0.00,,,0.00,Wunderground v.1.15,2013-02-14 21:44:00,
2013-02-14 16:49:00,46.4,40.6,30.00,NE,45,2.0,4.0,80,0.00,,,0.00,Wunderground v.1.15,2013-02-14 21:49:00,
2013-02-14 16:54:00,46.3,40.5,30.00,NE,45,3.0,3.0,80,0.00,,,0.00,Wunderground v.1.15,2013-02-14 21:54:00,
2013-02-14 16:59:00,46.3,40.1,30.00,NE,45,1.0,4.0,79,0.00,,,0.00,Wunderground v.1.15,2013-02-14 21:59:00,
2013-02-14 17:04:00,46.3,40.5,30.00,NE,45,1.0,3.0,80,0.00,,,0.00,Wunderground v.1.15,2013-02-14 22:04:00,
2013-02-14 17:09:00,46.3,40.5,30.01,NE,45,0.0,4.0,80,0.00,,,0.00,Wunderground v.1.15,2013-02-14 22:09:00,
2013-02-14 17:14:00,46.3,40.5,30.02,NE,45,1.0,2.0,80,0.00,,,0.00,Wunderground v.1.15,2013-02-14 22:14:00,
2013-02-14 17:19:00,46.3,40.5,30.02,NE,45,0.0,3.0,80,0.00,,,0.00,Wunderground v.1.15,2013-02-14 22:19:00,
2013-02-14 17:24:00,46.3,40.5,30.01,NE,45,0.0,1.0,80,0.00,,,0.00,Wunderground v.1.15,2013-02-14 22:24:00,
2013-02-14 17:29:00,46.1,40.3,30.01,NE,45,0.0,3.0,80,0.00,,,0.00,Wunderground v.1.15,2013-02-14 22:29:00,
2013-02-14 17:34:00,46.1,40.3,30.02,NE,45,0.0,0.0,80,0.00,,,0.00,Wunderground v.1.15,2013-02-14 22:34:00,
2013-02-14 17:39:00,46.0,40.5,30.02,NE,45,0.0,0.0,81,0.00,,,0.00,Wunderground v.1.15,2013-02-14 22:39:00,
2013-02-14 17:44:00,45.9,40.4,30.02,NE,45,0.0,0.0,81,0.00,,,0.00,Wunderground v.1.15,2013-02-14 22:44:00,
2013-02-14 17:49:00,45.8,40.6,30.02,NE,45,0.0,0.0,82,0.00,,,0.00,Wunderground v.1.15,2013-02-14 22:49:00,
2013-02-14 17:54:00,45.6,40.4,30.02,NE,45,0.0,0.0,82,0.00,,,0.00,Wunderground v.1.15,2013-02-14 22:54:00,
2013-02-14 17:59:00,45.5,40.3,30.02,NE,45,0.0,0.0,82,0.00,,,0.00,Wunderground v.1.15,2013-02-14 22:59:00,
2013-02-14 18:04:00,45.4,40.5,30.03,NE,45,0.0,0.0,83,0.00,,,0.00,Wunderground v.1.15,2013-02-14 23:04:00,
2013-02-14 18:09:00,45.3,40.4,30.03,NE,45,0.0,0.0,83,0.00,,,0.00,Wunderground v.1.15,2013-02-14 23:09:00,
2013-02-14 18:14:00,45.1,40.6,30.03,NE,45,0.0,0.0,84,0.00,,,0.00,Wunderground v.1.15,2013-02-14 23:14:00,
2013-02-14 18:19:00,45.1,40.6,30.03,NE,45,1.0,2.0,84,0.00,,,0.00,Wunderground v.1.15,2013-02-14 23:19:00,
2013-02-14 18:25:00,45.1,40.9,30.02,NE,45,0.0,2.0,85,0.00,,,0.00,Wunderground v.1.15,2013-02-14 23:25:00,
2013-02-14 18:30:00,45.2,40.7,30.02,NE,45,0.0,3.0,84,0.00,,,0.00,Wunderground v.1.15,2013-02-14 23:30:00,
2013-02-14 18:35:00,45.2,40.7,30.02,NE,45,0.0,1.0,84,0.00,,,0.00,Wunderground v.1.15,2013-02-14 23:35:00,
2013-02-14 18:40:00,45.1,40.6,30.02,NE,45,0.0,0.0,84,0.00,,,0.00,Wunderground v.1.15,2013-02-14 23:40:00,
2013-02-14 18:45:00,44.9,40.4,30.03,NE,45,0.0,2.0,84,0.00,,,0.00,Wunderground v.1.15,2013-02-14 23:45:00,
2013-02-14 18:50:00,44.7,40.2,30.03,NE,45,2.0,2.0,84,0.00,,,0.00,Wunderground v.1.15,2013-02-14 23:50:00,
2013-02-14 18:55:00,44.6,40.4,30.03,NE,45,2.0,2.0,85,0.00,,,0.00,Wunderground v.1.15,2013-02-14 23:55:00,
2013-02-14 19:00:00,44.3,40.1,30.04,NE,45,0.0,1.0,85,0.00,,,0.00,Wunderground v.1.15,2013-02-15 00:00:00,
2013-02-14 19:05:00,44.2,40.0,30.03,NE,45,0.0,1.0,85,0.00,,,0.00,Wunderground v.1.15,2013-02-15 00:05:00,
2013-02-14 19:10:00,44.0,39.8,30.03,NE,45,0.0,0.0,85,0.00,,,0.00,Wunderground v.1.15,2013-02-15 00:10:00,
2013-02-14 19:15:00,43.8,39.9,30.03,NE,45,0.0,0.0,86,0.00,,,0.00,Wunderground v.1.15,2013-02-15 00:15:00,
2013-02-14 19:20:00,43.8,39.9,30.04,NE,45,0.0,0.0,86,0.00,,,0.00,Wunderground v.1.15,2013-02-15 00:20:00,
2013-02-14 19:25:00,43.7,40.1,30.04,NE,45,0.0,0.0,87,0.00,,,0.00,Wunderground v.1.15,2013-02-15 00:25:00,
2013-02-14 19:30:00,43.8,40.2,30.04,NE,45,0.0,0.0,87,0.00,,,0.00,Wunderground v.1.15,2013-02-15 00:30:00,
2013-02-14 19:35:00,43.8,40.2,30.04,NE,45,0.0,0.0,87,0.00,,,0.00,Wunderground v.1.15,2013-02-15 00:35:00,
2013-02-14 19:40:00,43.8,40.2,30.04,NE,45,0.0,0.0,87,0.00,,,0.00,Wunderground v.1.15,2013-02-15 00:40:00,
2013-02-14 19:45:00,43.9,40.6,30.04,NE,45,0.0,0.0,88,0.00,,,0.00,Wunderground v.1.15,2013-02-15 00:45:00,
2013-02-14 19:50:00,44.0,40.7,30.04,NE,45,0.0,0.0,88,0.00,,,0.00,Wunderground v.1.15,2013-02-15 00:50:00,
2013-02-14 19:55:00,44.1,40.5,30.05,NE,45,0.0,1.0,87,0.00,,,0.00,Wunderground v.1.15,2013-02-15 00:55:00,
2013-02-14 20:00:00,44.1,40.5,30.04,NE,45,2.0,2.0,87,0.00,,,0.00,Wunderground v.1.15,2013-02-15 01:00:00,
2013-02-14 20:05:00,44.1,40.5,30.04,NE,45,0.0,3.0,87,0.00,,,0.00,Wunderground v.1.15,2013-02-15 01:05:00,
2013-02-14 20:10:00,44.2,40.6,30.04,NE,45,0.0,1.0,87,0.00,,,0.00,Wunderground v.1.15,2013-02-15 01:10:00,
2013-02-14 20:15:00,44.1,40.5,30.04,NE,45,0.0,1.0,87,0.00,,,0.00,Wunderground v.1.15,2013-02-15 01:15:00,
2013-02-14 20:20:00,44.0,40.4,30.04,NE,45,0.0,0.0,87,0.00,,,0.00,Wunderground v.1.15,2013-02-15 01:20:00,
2013-02-14 20:25:00,44.1,40.8,30.04,NE,45,0.0,0.0,88,0.00,,,0.00,Wunderground v.1.15,2013-02-15 01:25:00,
2013-02-14 20:30:00,44.2,40.9,30.03,NE,45,1.0,2.0,88,0.00,,,0.00,Wunderground v.1.15,2013-02-15 01:30:00,
2013-02-14 20:35:00,44.0,40.7,30.04,NE,45,0.0,3.0,88,0.00,,,0.00,Wunderground v.1.15,2013-02-15 01:35:00,
2013-02-14 20:40:00,43.9,40.6,30.04,NE,45,0.0,1.0,88,0.00,,,0.00,Wunderground v.1.15,2013-02-15 01:40:00,
2013-02-14 20:45:00,43.9,40.6,30.05,NE,45,2.0,2.0,88,0.00,,,0.00,Wunderground v.1.15,2013-02-15 01:45:00,
2013-02-14 20:50:00,44.0,40.7,30.06,NE,45,1.0,2.0,88,0.00,,,0.00,Wunderground v.1.15,2013-02-15 01:50:00,
2013-02-14 20:55:00,43.9,41.7,30.05,NE,45,0.0,2.0,92,0.00,,,0.00,Wunderground v.1.15,2013-02-15 01:55:00,
2013-02-14 21:00:00,43.7,40.4,30.07,NE,45,0.0,0.0,88,0.00,,,0.00,Wunderground v.1.15,2013-02-15 02:00:00,
2013-02-14 21:05:00,43.7,40.4,30.07,NE,45,0.0,0.0,88,0.00,,,0.00,Wunderground v.1.15,2013-02-15 02:05:00,
2013-02-14 21:10:00,43.7,40.4,30.06,NE,45,0.0,0.0,88,0.00,,,0.00,Wunderground v.1.15,2013-02-15 02:10:00,
2013-02-14 21:15:00,43.6,40.6,30.06,NE,45,0.0,0.0,89,0.00,,,0.00,Wunderground v.1.15,2013-02-15 02:15:00,
2013-02-14 21:20:00,43.6,40.6,30.06,NE,45,0.0,0.0,89,0.00,,,0.00,Wunderground v.1.15,2013-02-15 02:20:00,
2013-02-14 21:25:00,43.5,40.5,30.06,NE,45,0.0,0.0,89,0.00,,,0.00,Wunderground v.1.15,2013-02-15 02:25:00,
2013-02-14 21:30:00,43.7,40.7,30.07,NE,45,0.0,0.0,89,0.00,,,0.00,Wunderground v.1.15,2013-02-15 02:30:00,
2013-02-14 21:35:00,43.8,40.8,30.06,NE,45,0.0,0.0,89,0.00,,,0.00,Wunderground v.1.15,2013-02-15 02:35:00,
2013-02-14 21:41:00,43.9,40.9,30.06,NE,45,0.0,0.0,89,0.00,,,0.00,Wunderground v.1.15,2013-02-15 02:41:00,
2013-02-14 21:46:00,43.9,40.9,30.06,NE,45,0.0,0.0,89,0.00,,,0.00,Wunderground v.1.15,2013-02-15 02:46:00,
2013-02-14 21:51:00,43.8,41.1,30.06,NE,45,0.0,0.0,90,0.00,,,0.00,Wunderground v.1.15,2013-02-15 02:51:00,
2013-02-14 21:56:00,43.9,41.2,30.06,NE,45,0.0,0.0,90,0.00,,,0.00,Wunderground v.1.15,2013-02-15 02:56:00,
2013-02-14 22:01:00,44.0,41.3,30.06,NE,45,0.0,0.0,90,0.00,,,0.00,Wunderground v.1.15,2013-02-15 03:01:00,
2013-02-14 22:06:00,44.1,41.6,30.06,NE,45,0.0,0.0,91,0.00,,,0.00,Wunderground v.1.15,2013-02-15 03:06:00,
2013-02-14 22:11:00,44.1,41.4,30.07,NE,45,0.0,0.0,90,0.00,,,0.00,Wunderground v.1.15,2013-02-15 03:11:00,
2013-02-14 22:16:00,44.1,41.6,30.06,NE,45,1.0,2.0,91,0.00,,,0.00,Wunderground v.1.15,2013-02-15 03:16:00,
2013-02-14 22:21:00,44.3,41.8,30.06,NE,45,2.0,2.0,91,0.00,,,0.00,Wunderground v.1.15,2013-02-15 03:21:00,
2013-02-14 22:26:00,44.7,42.2,30.07,NE,45,0.0,3.0,91,0.00,,,0.00,Wunderground v.1.15,2013-02-15 03:26:00,
2013-02-14 22:31:00,44.9,42.4,30.06,NE,45,0.0,1.0,91,0.00,,,0.00,Wunderground v.1.15,2013-02-15 03:31:00,
2013-02-14 22:36:00,45.0,42.5,30.06,NE,45,0.0,1.0,91,0.00,,,0.00,Wunderground v.1.15,2013-02-15 03:36:00,
2013-02-14 22:41:00,45.2,42.7,30.06,NE,45,1.0,4.0,91,0.00,,,0.00,Wunderground v.1.15,2013-02-15 03:41:00,
2013-02-14 22:46:00,45.4,42.9,30.06,NE,45,1.0,4.0,91,0.00,,,0.00,Wunderground v.1.15,2013-02-15 03:46:00,
2013-02-14 22:51:00,45.3,42.5,30.05,NE,45,0.0,1.0,90,0.00,,,0.00,Wunderground v.1.15,2013-02-15 03:51:00,
2013-02-14 22:56:00,45.1,42.3,30.05,NE,45,0.0,1.0,90,0.00,,,0.00,Wunderground v.1.15,2013-02-15 03:56:00,
2013-02-14 23:01:00,45.0,42.2,30.05,NE,45,0.0,0.0,90,0.00,,,0.00,Wunderground v.1.15,2013-02-15 04:01:00,
2013-02-14 23:06:00,45.0,42.2,30.04,NE,45,2.0,2.0,90,0.00,,,0.00,Wunderground v.1.15,2013-02-15 04:06:00,
2013-02-14 23:11:00,45.0,42.2,30.03,NE,45,2.0,3.0,90,0.00,,,0.00,Wunderground v.1.15,2013-02-15 04:11:00,
2013-02-14 23:16:00,45.0,42.2,30.03,NE,45,0.0,3.0,90,0.00,,,0.00,Wunderground v.1.15,2013-02-15 04:16:00,
2013-02-14 23:21:00,45.0,42.2,30.03,NE,45,0.0,1.0,90,0.00,,,0.00,Wunderground v.1.15,2013-02-15 04:21:00,
2013-02-14 23:26:00,45.0,42.2,30.03,NE,45,0.0,3.0,90,0.00,,,0.00,Wunderground v.1.15,2013-02-15 04:26:00,
2013-02-14 23:31:00,45.0,42.2,30.02,NE,45,1.0,2.0,90,0.00,,,0.00,Wunderground v.1.15,2013-02-15 04:31:00,
2013-02-14 23:36:00,45.1,42.3,30.02,NE,45,1.0,3.0,90,0.00,,,0.00,Wunderground v.1.15,2013-02-15 04:36:00,
2013-02-14 23:41:00,45.2,42.4,30.02,NE,45,2.0,3.0,90,0.00,,,0.00,Wunderground v.1.15,2013-02-15 04:41:00,
2013-02-14 23:46:00,45.4,42.6,30.02,NE,45,3.0,4.0,90,0.00,,,0.00,Wunderground v.1.15,2013-02-15 04:46:00,
2013-02-14 23:51:00,45.6,42.8,30.02,NE,45,3.0,4.0,90,0.00,,,0.00,Wunderground v.1.15,2013-02-15 04:51:00,
2013-02-14 23:57:00,45.8,43.0,30.03,NE,45,4.0,5.0,90,0.00,,,0.00,Wunderground v.1.15,2013-02-15 04:57:00,